Time;durP1;ratioP1;P1;durP2;ratioP2;P2;SDS_P1;SDS_P2;PMS_P1;PMS_P2;Temp;Humidity;BMP_temperature;BMP_pressure;BME280_temperature;BME280_humidity;BME280_pressure;Samples;Min_cycle;Max_cycle;Signal;HPM_P1;HPM_P2
2022/06/10 00:00:30;;;;;;;14.00;8.00;;;11.90;99.90;;;;;;5000037;28;20516;-54
2022/06/10 00:02:56;;;;;;;17.83;7.93;;;11.90;19.80;;;;;;4996049;28;20529;-53
2022/06/10 00:05:27;;;;;;;17.57;7.93;;;11.90;1.00;;;;;;5004849;28;20506;-54
2022/06/10 00:07:52;;;;;;;18.43;8.03;;;11.90;99.90;;;;;;5001144;28;20533;-54
2022/06/10 00:10:21;;;;;;;17.37;8.53;;;11.90;99.90;;;;;;4998479;28;20569;-54
2022/06/10 00:12:48;;;;;;;13.90;8.00;;;12.00;99.90;;;;;;5005236;28;20536;-54
2022/06/10 00:15:14;;;;;;;22.37;8.27;;;12.00;99.90;;;;;;5005085;28;20441;-54
2022/06/10 00:17:41;;;;;;;20.40;8.30;;;12.10;1.00;;;;;;4998614;28;20423;-54
2022/06/10 00:20:08;;;;;;;19.17;8.07;;;12.00;99.90;;;;;;4992353;28;20458;-54
2022/06/10 00:22:33;;;;;;;15.20;8.17;;;12.00;80.70;;;;;;4991873;28;20557;-54
2022/06/10 00:24:59;;;;;;;14.67;8.00;;;12.00;1.00;;;;;;4998261;28;21337;-54
2022/06/10 00:27:25;;;;;;;13.20;8.00;;;11.90;99.90;;;;;;5004056;28;20188;-55
2022/06/10 00:29:51;;;;;;;15.33;8.43;;;11.90;1.00;;;;;;4996345;28;20194;-54
2022/06/10 00:32:17;;;;;;;11.17;7.63;;;11.90;1.00;;;;;;5003634;28;20188;-54
2022/06/10 00:34:43;;;;;;;24.17;9.30;;;11.90;1.00;;;;;;5000268;28;20564;-54
2022/06/10 00:37:09;;;;;;;18.03;8.90;;;11.90;99.90;;;;;;5003229;28;20443;-54
2022/06/10 00:39:34;;;;;;;20.10;9.70;;;11.90;1.00;;;;;;4995624;28;21049;-54
2022/06/10 00:42:03;;;;;;;13.77;9.20;;;11.90;1.00;;;;;;5004834;28;20473;-54
2022/06/10 00:44:39;;;;;;;18.13;9.00;;;12.00;1.00;;;;;;4997327;28;20196;-54
2022/06/10 00:47:15;;;;;;;24.47;9.17;;;11.90;7.10;;;;;;4999590;28;21177;-53
2022/06/10 00:49:45;;;;;;;17.03;10.57;;;11.90;1.00;;;;;;4999351;28;20475;-54
2022/06/10 00:52:22;;;;;;;22.70;9.37;;;11.90;1.00;;;;;;4991666;28;20430;-54
2022/06/10 00:54:50;;;;;;;17.40;8.80;;;11.90;99.90;;;;;;5002743;28;20418;-54
2022/06/10 00:57:26;;;;;;;13.20;8.80;;;11.90;99.90;;;;;;4998969;28;20429;-54
2022/06/10 01:00:13;;;;;;;24.70;9.40;;;11.90;99.90;;;;;;4997825;28;20457;-54
2022/06/10 01:02:39;;;;;;;21.80;10.00;;;11.90;99.90;;;;;;4993457;28;20431;-54
2022/06/10 01:05:19;;;;;;;13.97;9.07;;;11.80;99.90;;;;;;5004620;28;20465;-53
2022/06/10 01:08:23;;;;;;;18.63;9.80;;;11.80;99.90;;;;;;4999284;28;20438;-54
2022/06/10 01:11:07;;;;;;;13.97;9.40;;;11.80;99.90;;;;;;4938243;29;20437;-54
2022/06/10 01:13:36;;;;;;;21.07;8.23;;;11.70;99.90;;;;;;4998242;28;20782;-54
2022/06/10 01:16:10;;;;;;;18.17;9.43;;;11.70;99.90;;;;;;4998620;28;20482;-54
2022/06/10 01:18:35;;;;;;;15.80;10.13;;;11.60;99.90;;;;;;4996498;28;20497;-55
2022/06/10 01:21:07;;;;;;;24.20;9.70;;;11.60;99.90;;;;;;5001031;28;21031;-54
2022/06/10 01:24:01;;;;;;;20.97;10.17;;;11.60;99.90;;;;;;5003015;28;20211;-55
2022/06/10 01:29:51;;;;;;;16.30;9.80;;;11.60;99.90;;;;;;4994296;28;20478;-54
2022/06/10 01:32:40;;;;;;;23.57;11.90;;;11.50;99.90;;;;;;4995707;28;20451;-54
2022/06/10 01:35:26;;;;;;;19.47;10.23;;;11.50;99.90;;;;;;4998763;28;20438;-54
2022/06/10 01:37:55;;;;;;;23.03;10.03;;;11.40;99.90;;;;;;4995456;28;20418;-54
2022/06/10 01:40:38;;;;;;;34.03;12.90;;;11.40;99.90;;;;;;4994360;28;20988;-54
2022/06/10 01:43:30;;;;;;;23.10;11.17;;;11.40;99.90;;;;;;5001493;28;20423;-55
2022/06/10 01:46:06;;;;;;;24.63;10.67;;;11.50;99.90;;;;;;4995508;28;20532;-54
2022/06/10 01:48:34;;;;;;;19.17;11.10;;;11.40;99.90;;;;;;5003761;28;20485;-54
2022/06/10 01:51:07;;;;;;;20.07;11.00;;;11.40;99.90;;;;;;4998942;28;20893;-54
2022/06/10 01:54:22;;;;;;;26.90;12.23;;;11.40;99.90;;;;;;4993635;28;20856;-54
2022/06/10 01:56:52;;;;;;;20.83;12.13;;;11.40;99.90;;;;;;4982515;28;20957;-54
2022/06/10 01:59:27;;;;;;;28.53;12.00;;;11.40;99.90;;;;;;4999798;28;20438;-54
2022/06/10 02:01:59;;;;;;;23.70;12.10;;;11.40;99.90;;;;;;5002829;28;20469;-54
2022/06/10 02:04:35;;;;;;;28.90;11.77;;;11.40;99.90;;;;;;4990697;28;20468;-54
2022/06/10 02:07:08;;;;;;;18.27;11.20;;;11.40;99.90;;;;;;4997311;28;20473;-54
2022/06/10 02:09:47;;;;;;;25.57;11.60;;;11.30;99.90;;;;;;5001631;28;20446;-55
2022/06/10 02:12:22;;;;;;;41.53;13.40;;;11.30;99.90;;;;;;4999447;28;20431;-54
2022/06/10 02:14:58;;;;;;;25.17;12.73;;;11.30;99.90;;;;;;4991926;28;20449;-54
2022/06/10 02:17:28;;;;;;;27.47;12.80;;;11.30;99.90;;;;;;4989181;28;20777;-54
2022/06/10 02:19:58;;;;;;;32.80;12.90;;;11.30;99.90;;;;;;4992288;28;20616;-54
2022/06/10 02:22:31;;;;;;;24.23;12.13;;;11.30;99.90;;;;;;4987986;28;20494;-54
2022/06/10 02:25:04;;;;;;;25.50;12.50;;;11.40;99.90;;;;;;4989175;28;20450;-54
2022/06/10 02:27:34;;;;;;;26.33;12.27;;;11.40;99.90;;;;;;4976017;28;20442;-55
2022/06/10 02:30:26;;;;;;;31.60;13.53;;;11.40;99.90;;;;;;4972054;28;21287;-54
2022/06/10 02:32:54;;;;;;;19.87;11.23;;;11.40;99.90;;;;;;4973969;28;20789;-54
2022/06/10 02:35:19;;;;;;;35.50;14.20;;;11.30;99.90;;;;;;4970840;28;20445;-54
2022/06/10 02:38:22;;;;;;;24.57;12.13;;;11.40;99.90;;;;;;4970103;28;20439;-54
2022/06/10 02:41:12;;;;;;;23.07;13.33;;;11.40;99.90;;;;;;4970965;28;20187;-54
2022/06/10 02:43:48;;;;;;;20.10;12.63;;;11.30;99.90;;;;;;4971385;28;20445;-54
2022/06/10 02:46:24;;;;;;;30.17;14.63;;;11.30;99.90;;;;;;4970097;28;20468;-54
2022/06/10 02:49:00;;;;;;;23.30;13.20;;;11.40;99.90;;;;;;4969560;28;20513;-54
2022/06/10 02:51:26;;;;;;;30.00;13.40;;;11.30;99.90;;;;;;4970936;28;20444;-54
2022/06/10 02:53:52;;;;;;;25.50;13.70;;;11.30;99.90;;;;;;4972029;28;20443;-54
2022/06/10 02:56:22;;;;;;;22.30;12.90;;;11.30;99.90;;;;;;4971986;28;20466;-54
2022/06/10 03:01:59;;;;;;;27.90;12.90;;;11.30;99.90;;;;;;4974441;28;20478;-54
2022/06/10 03:04:36;;;;;;;22.50;14.37;;;11.30;99.90;;;;;;4973243;28;20449;-54
2022/06/10 03:07:15;;;;;;;24.20;13.00;;;11.30;99.90;;;;;;4986148;28;20562;-54
2022/06/10 03:09:44;;;;;;;28.10;13.70;;;11.30;99.90;;;;;;4982021;28;20479;-54
2022/06/10 03:12:22;;;;;;;25.23;14.00;;;11.30;99.90;;;;;;4974226;28;20443;-54
2022/06/10 03:15:15;;;;;;;22.13;13.00;;;11.30;99.90;;;;;;4979119;28;20446;-55
2022/06/10 03:17:44;;;;;;;22.10;13.20;;;11.30;99.90;;;;;;4974545;28;20431;-53
2022/06/10 03:20:42;;;;;;;24.27;12.90;;;11.40;99.90;;;;;;4973818;28;20455;-54
2022/06/10 03:23:11;;;;;;;26.10;14.17;;;11.40;99.90;;;;;;4963922;28;20960;-54
2022/06/10 03:25:42;;;;;;;29.70;14.90;;;11.40;99.90;;;;;;4986112;28;20486;-54
2022/06/10 03:28:13;;;;;;;23.80;13.77;;;11.40;99.90;;;;;;4998034;28;20451;-53
2022/06/10 03:30:49;;;;;;;25.67;14.23;;;11.40;99.90;;;;;;5001140;28;20839;-54
2022/06/10 03:33:32;;;;;;;24.60;14.60;;;11.50;99.90;;;;;;4997814;28;20434;-53
2022/06/10 03:36:04;;;;;;;24.77;14.63;;;11.50;99.90;;;;;;4992296;28;20502;-53
2022/06/10 03:38:37;;;;;;;23.40;13.27;;;11.50;99.90;;;;;;4999100;28;20522;-54
2022/06/10 03:41:04;;;;;;;25.80;13.17;;;11.50;99.90;;;;;;4993497;28;20440;-54
2022/06/10 03:43:39;;;;;;;25.23;13.33;;;11.40;99.90;;;;;;4994217;28;20785;-54
2022/06/10 03:46:09;;;;;;;23.87;13.93;;;11.40;99.90;;;;;;5000583;28;20473;-54
2022/06/10 03:48:38;;;;;;;23.07;14.50;;;11.40;99.90;;;;;;5005366;28;20419;-54
2022/06/10 03:51:06;;;;;;;28.13;14.70;;;11.40;99.90;;;;;;4994191;28;20442;-54
2022/06/10 03:53:32;;;;;;;20.90;13.30;;;11.40;99.90;;;;;;4999676;28;20961;-54
2022/06/10 03:55:57;;;;;;;23.30;13.47;;;11.40;99.90;;;;;;4993671;28;20467;-53
2022/06/10 03:58:23;;;;;;;19.07;13.63;;;11.40;99.90;;;;;;5001182;28;20188;-53
2022/06/10 04:00:49;;;;;;;21.50;12.63;;;11.40;99.90;;;;;;4993530;28;20247;-54
2022/06/10 04:03:14;;;;;;;23.77;12.60;;;11.50;99.90;;;;;;4999855;28;20294;-54
2022/06/10 04:05:40;;;;;;;21.77;12.90;;;11.50;99.90;;;;;;5002055;28;20231;-54
2022/06/10 04:08:06;;;;;;;27.73;13.03;;;11.60;99.90;;;;;;4989595;28;20734;-54
2022/06/10 04:10:32;;;;;;;19.13;12.40;;;11.70;99.90;;;;;;4996101;28;20275;-53
2022/06/10 04:12:58;;;;;;;38.17;13.40;;;11.80;99.90;;;;;;4995891;28;20546;-54
2022/06/10 04:15:27;;;;;;;17.20;12.20;;;11.90;99.90;;;;;;4996773;28;20197;-54
2022/06/10 04:17:54;;;;;;;17.67;11.03;;;11.90;99.90;;;;;;5001074;28;20445;-54
2022/06/10 04:20:32;;;;;;;22.20;10.93;;;12.00;99.90;;;;;;4998610;28;20439;-54
2022/06/10 04:22:58;;;;;;;25.70;10.70;;;12.10;99.90;;;;;;4986547;28;20482;-54
2022/06/10 04:25:24;;;;;;;18.90;10.90;;;12.20;99.90;;;;;;4998443;28;21198;-53
2022/06/10 04:27:49;;;;;;;17.23;10.70;;;12.40;99.90;;;;;;5001122;28;20561;-54
2022/06/10 04:30:28;;;;;;;15.77;11.27;;;12.50;99.90;;;;;;4998741;28;20506;-53
2022/06/10 04:32:54;;;;;;;15.80;9.60;;;12.60;99.90;;;;;;4995445;28;20180;-54
2022/06/10 04:35:22;;;;;;;15.83;9.73;;;12.70;99.90;;;;;;4996706;28;20425;-53
2022/06/10 04:37:48;;;;;;;20.70;8.80;;;12.90;99.90;;;;;;4996887;28;20443;-54
2022/06/10 04:40:17;;;;;;;13.77;8.70;;;13.10;99.90;;;;;;5005394;28;20757;-53
2022/06/10 04:42:44;;;;;;;16.80;9.00;;;13.20;99.90;;;;;;4991427;28;20443;-54
2022/06/10 04:45:10;;;;;;;16.43;7.73;;;13.40;99.90;;;;;;4996176;28;20554;-53
2022/06/10 04:47:36;;;;;;;16.67;9.10;;;13.50;99.90;;;;;;4994650;28;20450;-54
2022/06/10 04:50:03;;;;;;;17.53;8.73;;;13.70;99.90;;;;;;5002444;28;20426;-53
2022/06/10 04:52:29;;;;;;;18.27;9.00;;;13.80;99.90;;;;;;4998827;28;20191;-53
2022/06/10 04:54:55;;;;;;;17.03;7.90;;;14.00;99.90;;;;;;4992428;28;20751;-53
2022/06/10 04:57:20;;;;;;;18.33;8.57;;;14.10;99.90;;;;;;4995713;28;20242;-53
2022/06/10 04:59:46;;;;;;;11.57;7.00;;;14.20;99.90;;;;;;4993575;28;20447;-53
2022/06/10 05:02:12;;;;;;;15.57;7.07;;;14.30;99.90;;;;;;4999401;28;20181;-53
2022/06/10 05:04:38;;;;;;;15.23;6.80;;;14.50;99.90;;;;;;4997340;28;20778;-54
2022/06/10 05:07:04;;;;;;;13.07;6.63;;;14.60;99.90;;;;;;4993658;28;20213;-53
2022/06/10 05:09:29;;;;;;;14.70;7.13;;;14.70;99.90;;;;;;4999033;28;20898;-53
2022/06/10 05:11:55;;;;;;;12.20;6.83;;;14.80;99.90;;;;;;4992960;28;20474;-53
2022/06/10 05:14:21;;;;;;;14.13;6.47;;;14.80;99.90;;;;;;4991501;28;20259;-52
2022/06/10 05:16:47;;;;;;;8.50;5.63;;;14.90;99.90;;;;;;4996026;28;20223;-52
2022/06/10 05:19:12;;;;;;;13.90;6.10;;;15.10;99.90;;;;;;4983399;28;20200;-53
2022/06/10 05:21:38;;;;;;;10.37;5.63;;;15.20;99.90;;;;;;5002257;28;20494;-53
2022/06/10 05:24:04;;;;;;;12.77;6.10;;;15.30;99.90;;;;;;4991180;28;20199;-53
2022/06/10 05:26:32;;;;;;;11.27;5.60;;;15.50;99.90;;;;;;4999166;28;20923;-53
2022/06/10 05:29:00;;;;;;;16.20;6.03;;;15.60;99.90;;;;;;4999227;28;20470;-53
2022/06/10 05:31:25;;;;;;;8.90;5.07;;;15.80;99.90;;;;;;4999656;28;20454;-53
2022/06/10 05:36:36;;;;;;;13.83;5.10;;;16.00;99.90;;;;;;4996871;28;20195;-52
2022/06/10 05:39:03;;;;;;;15.70;5.10;;;16.10;99.90;;;;;;4996405;28;20446;-57
2022/06/10 05:44:13;;;;;;;10.53;4.63;;;16.30;99.90;;;;;;4989855;28;20487;-52
2022/06/10 05:46:38;;;;;;;7.70;3.93;;;16.50;99.90;;;;;;4999230;28;20477;-52
2022/06/10 05:49:04;;;;;;;11.10;4.17;;;16.50;99.90;;;;;;4996786;28;20887;-53
2022/06/10 05:51:30;;;;;;;9.33;4.20;;;16.60;99.90;;;;;;4985877;28;20202;-52
2022/06/10 05:53:56;;;;;;;14.03;4.27;;;16.60;99.90;;;;;;4992663;28;20196;-52
2022/06/10 05:56:21;;;;;;;15.90;4.27;;;16.70;99.90;;;;;;4995270;28;20200;-52
2022/06/10 05:58:47;;;;;;;11.67;3.50;;;16.90;99.90;;;;;;5000738;28;20628;-51
2022/06/10 06:01:12;;;;;;;13.37;4.53;;;17.00;99.90;;;;;;4992786;28;20200;-52
2022/06/10 06:03:38;;;;;;;8.20;4.47;;;17.10;99.90;;;;;;4993744;28;20195;-53
2022/06/10 06:06:04;;;;;;;10.27;3.67;;;17.30;99.90;;;;;;4989460;28;20224;-52
2022/06/10 06:08:30;;;;;;;12.10;3.67;;;17.50;99.90;;;;;;4994797;28;20232;-52
2022/06/10 06:10:55;;;;;;;9.83;3.47;;;17.80;99.90;;;;;;4999771;28;20326;-52
2022/06/10 06:13:21;;;;;;;8.33;3.43;;;17.90;99.90;;;;;;4991593;28;20274;-52
2022/06/10 06:15:47;;;;;;;14.90;3.00;;;18.10;99.90;;;;;;4991051;28;20199;-52
2022/06/10 06:18:13;;;;;;;9.47;2.90;;;18.20;99.90;;;;;;4995719;28;20232;-52
2022/06/10 06:20:39;;;;;;;12.13;3.20;;;18.30;99.90;;;;;;4990630;28;20563;-52
2022/06/10 06:23:05;;;;;;;7.37;2.47;;;18.40;99.90;;;;;;4985909;28;21015;-52
2022/06/10 06:25:32;;;;;;;10.57;2.97;;;18.40;99.90;;;;;;4988852;28;20219;-52
2022/06/10 06:27:57;;;;;;;9.60;2.70;;;18.50;99.90;;;;;;4988311;28;20188;-52
2022/06/10 06:30:31;;;;;;;9.90;2.30;;;18.50;99.90;;;;;;4992431;28;20473;-51
2022/06/10 06:32:58;;;;;;;3.67;2.23;;;18.60;99.90;;;;;;4996538;28;20246;-52
2022/06/10 06:35:23;;;;;;;5.00;2.40;;;18.90;99.90;;;;;;4996058;28;20498;-52
2022/06/10 06:37:49;;;;;;;7.07;2.20;;;19.10;99.90;;;;;;4994071;28;20459;-52
2022/06/10 06:40:15;;;;;;;13.23;3.33;;;19.20;99.90;;;;;;4998177;28;20203;-52
2022/06/10 06:42:41;;;;;;;9.13;2.50;;;19.40;99.90;;;;;;4997932;28;20207;-52
2022/06/10 06:45:08;;;;;;;10.33;2.77;;;19.70;99.90;;;;;;4995795;28;20188;-52
2022/06/10 06:47:34;;;;;;;10.40;2.90;;;19.70;99.90;;;;;;4997892;28;20187;-52
2022/06/10 06:50:00;;;;;;;13.03;2.60;;;19.80;99.90;;;;;;4999088;28;20516;-52
2022/06/10 06:52:25;;;;;;;7.80;2.13;;;19.80;99.90;;;;;;5006263;28;20431;-52
2022/06/10 06:54:51;;;;;;;10.13;3.03;;;19.80;99.90;;;;;;5003978;28;20476;-52
2022/06/10 06:57:18;;;;;;;9.83;2.30;;;20.00;99.90;;;;;;5001638;28;20724;-52
2022/06/10 06:59:43;;;;;;;9.07;2.80;;;20.30;99.90;;;;;;5007061;28;20250;-51
2022/06/10 07:02:10;;;;;;;4.03;2.17;;;20.60;99.90;;;;;;5009653;28;20428;-52
2022/06/10 07:04:37;;;;;;;12.90;2.50;;;21.00;99.90;;;;;;5003039;28;20626;-51
2022/06/10 07:07:03;;;;;;;7.37;3.20;;;21.40;99.90;;;;;;5000847;28;20850;-51
2022/06/10 07:09:29;;;;;;;9.77;2.50;;;21.40;99.90;;;;;;5004333;28;20427;-51
2022/06/10 07:11:55;;;;;;;14.60;3.20;;;21.10;99.90;;;;;;5006517;28;20426;-51
2022/06/10 07:14:22;;;;;;;13.33;2.30;;;21.00;99.90;;;;;;5001714;28;20430;-52
2022/06/10 07:16:51;;;;;;;7.43;2.40;;;21.10;99.90;;;;;;5008311;28;20470;-51
2022/06/10 07:19:20;;;;;;;5.20;2.23;;;21.10;99.90;;;;;;4991977;28;21125;-52
2022/06/10 07:21:46;;;;;;;4.07;2.13;;;21.20;99.90;;;;;;4994678;28;21027;-51
2022/06/10 07:24:12;;;;;;;7.77;2.50;;;21.40;99.90;;;;;;5001541;28;20426;-51
2022/06/10 07:26:37;;;;;;;15.27;2.67;;;21.50;99.90;;;;;;5001664;28;20199;-52
2022/06/10 07:29:03;;;;;;;11.40;2.47;;;21.70;99.90;;;;;;5005061;28;20206;-52
2022/06/10 07:31:30;;;;;;;5.90;2.03;;;21.80;99.90;;;;;;5004395;28;20222;-52
2022/06/10 07:33:57;;;;;;;6.23;2.33;;;21.90;99.90;;;;;;5000033;28;20426;-51
2022/06/10 07:36:23;;;;;;;9.43;2.67;;;21.90;99.90;;;;;;5003210;28;20415;-51
2022/06/10 07:38:48;;;;;;;5.60;2.50;;;22.00;99.90;;;;;;4997462;28;20439;-51
2022/06/10 07:43:59;;;;;;;6.70;2.00;;;22.00;99.90;;;;;;5003788;28;20191;-52
2022/06/10 07:46:25;;;;;;;11.03;2.30;;;22.20;99.90;;;;;;5002362;28;20812;-51
2022/06/10 07:48:51;;;;;;;8.27;2.70;;;22.70;99.90;;;;;;5005103;28;20192;-52
2022/06/10 07:51:18;;;;;;;9.27;2.23;;;22.70;99.90;;;;;;5002871;28;20468;-51
2022/06/10 07:53:44;;;;;;;6.07;2.07;;;23.00;99.90;;;;;;4999793;28;20427;-51
2022/06/10 07:56:13;;;;;;;6.60;1.73;;;23.10;99.90;;;;;;5002523;28;20443;-52
2022/06/10 07:58:39;;;;;;;8.53;2.53;;;23.30;99.90;;;;;;5003858;28;20454;-51
2022/06/10 08:01:05;;;;;;;4.20;1.77;;;23.50;99.90;;;;;;5002050;28;20419;-51
2022/06/10 08:03:31;;;;;;;7.90;2.40;;;23.10;99.90;;;;;;4998490;28;20427;-52
2022/06/10 08:05:58;;;;;;;8.00;2.50;;;23.00;99.90;;;;;;5003563;28;20666;-51
2022/06/10 08:08:24;;;;;;;9.37;2.47;;;23.30;99.90;;;;;;5004747;28;20583;-53
2022/06/10 08:10:50;;;;;;;7.67;2.30;;;23.40;99.90;;;;;;4999429;28;20465;-50
2022/06/10 08:13:16;;;;;;;11.97;2.23;;;23.70;99.90;;;;;;5000275;28;20431;-51
2022/06/10 08:15:44;;;;;;;5.17;2.17;;;24.10;99.90;;;;;;5004590;28;20446;-51
2022/06/10 08:18:11;;;;;;;5.00;2.07;;;24.20;99.90;;;;;;5003330;28;20692;-51
2022/06/10 08:23:25;;;;;;;6.87;1.80;;;24.30;99.90;;;;;;5002041;28;20523;-51
2022/06/10 08:25:52;;;;;;;8.03;1.77;;;24.70;99.90;;;;;;5002514;28;20557;-51
2022/06/10 08:28:18;;;;;;;7.80;2.57;;;25.00;99.90;;;;;;4998864;28;20798;-51
2022/06/10 08:30:44;;;;;;;5.10;1.90;;;24.90;99.90;;;;;;5000002;28;20434;-51
2022/06/10 08:33:10;;;;;;;6.17;2.00;;;24.50;99.90;;;;;;5000295;28;20192;-51
2022/06/10 08:35:36;;;;;;;7.40;2.57;;;24.60;99.90;;;;;;5004636;28;20347;-51
2022/06/10 08:38:05;;;;;;;6.43;2.17;;;24.60;99.90;;;;;;5001512;28;20430;-50
2022/06/10 08:40:39;;;;;;;8.17;2.30;;;24.40;99.90;;;;;;5002130;28;20492;-51
2022/06/10 08:43:14;;;;;;;7.17;2.17;;;24.40;99.90;;;;;;5001434;28;20921;-51
2022/06/10 08:45:57;;;;;;;7.60;2.00;;;24.30;99.90;;;;;;5005815;28;20478;-51
2022/06/10 08:48:55;;;;;;;8.30;2.37;;;24.60;99.90;;;;;;4998533;28;20545;-51
2022/06/10 08:51:30;;;;;;;4.60;2.20;;;25.00;99.90;;;;;;4996219;28;20446;-51
2022/06/10 08:54:09;;;;;;;10.97;2.77;;;25.10;99.90;;;;;;5003550;28;20428;-51
2022/06/10 08:56:41;;;;;;;8.20;2.67;;;24.90;99.90;;;;;;4999771;28;20426;-52
2022/06/10 08:59:22;;;;;;;5.40;2.20;;;24.90;99.90;;;;;;4998808;28;20458;-51
2022/06/10 09:02:00;;;;;;;10.00;2.60;;;24.90;99.90;;;;;;4996648;28;20826;-51
2022/06/10 09:04:52;;;;;;;9.27;2.90;;;25.40;99.90;;;;;;4994260;28;20526;-51
2022/06/10 09:07:46;;;;;;;9.50;3.03;;;25.30;99.90;;;;;;5002225;28;20466;-51
2022/06/10 09:10:20;;;;;;;9.60;3.13;;;25.10;99.90;;;;;;5004209;28;20521;-51
2022/06/10 09:13:06;;;;;;;7.53;2.90;;;25.30;99.90;;;;;;5000651;28;20458;-51
2022/06/10 09:15:39;;;;;;;6.47;3.43;;;25.50;99.90;;;;;;4993487;28;20431;-52
2022/06/10 09:18:14;;;;;;;9.77;3.60;;;24.90;99.90;;;;;;5001635;28;20458;-51
2022/06/10 09:20:49;;;;;;;7.17;2.90;;;24.40;99.90;;;;;;4998761;28;20851;-51
2022/06/10 09:23:27;;;;;;;9.03;3.40;;;24.40;99.90;;;;;;4999537;28;20454;-51
2022/06/10 09:25:56;;;;;;;7.07;3.23;;;24.50;99.90;;;;;;5001695;28;20561;-51
2022/06/10 09:28:23;;;;;;;11.17;3.70;;;24.90;99.90;;;;;;4998129;28;20426;-51
2022/06/10 09:30:56;;;;;;;6.33;3.00;;;25.10;99.90;;;;;;4992145;28;20974;-50
2022/06/10 09:33:42;;;;;;;8.77;3.03;;;24.70;99.90;;;;;;4994695;28;20501;-51
2022/06/10 09:36:25;;;;;;;6.17;3.17;;;24.40;99.90;;;;;;4987089;28;20434;-51
2022/06/10 09:42:16;;;;;;;8.37;3.47;;;23.80;99.90;;;;;;4997061;28;20410;-51
2022/06/10 09:45:22;;;;;;;9.17;3.23;;;23.80;99.90;;;;;;4996802;28;20520;-51
2022/06/10 09:48:23;;;;;;;8.03;3.47;;;24.90;99.90;;;;;;4994934;28;20459;-51
2022/06/10 09:51:09;;;;;;;7.93;3.03;;;26.40;99.90;;;;;;5002497;28;20411;-49
2022/06/10 09:54:16;;;;;;;8.87;3.77;;;26.60;99.90;;;;;;4996720;28;20415;-56
2022/06/10 09:56:59;;;;;;;8.17;3.33;;;25.80;99.90;;;;;;4964246;28;20480;-51
2022/06/10 09:59:37;;;;;;;11.30;3.07;;;24.60;99.90;;;;;;4992836;28;20411;-51
2022/06/10 10:02:26;;;;;;;11.83;3.90;;;24.80;99.90;;;;;;4996782;28;20517;-51
2022/06/10 10:04:55;;;;;;;9.10;3.27;;;25.30;99.90;;;;;;4998617;28;20412;-52
2022/06/10 10:07:47;;;;;;;8.43;3.50;;;25.50;99.90;;;;;;5001990;28;20471;-50
2022/06/10 10:10:35;;;;;;;9.67;3.17;;;25.60;99.90;;;;;;4997504;28;20536;-49
2022/06/10 10:13:25;;;;;;;10.20;3.00;;;24.90;99.90;;;;;;5000780;28;20494;-51
2022/06/10 10:15:57;;;;;;;10.20;3.27;;;24.70;99.90;;;;;;5002145;28;20420;-51
2022/06/10 10:18:41;;;;;;;8.43;3.60;;;25.30;99.90;;;;;;4995251;28;20956;-50
2022/06/10 10:21:26;;;;;;;9.00;3.00;;;26.10;99.90;;;;;;4988505;28;20471;-49
2022/06/10 10:23:55;;;;;;;7.87;3.40;;;26.60;99.90;;;;;;4995614;28;20442;-51
2022/06/10 10:26:33;;;;;;;8.67;3.00;;;26.60;99.90;;;;;;4999835;28;20471;-52
2022/06/10 10:29:11;;;;;;;8.73;2.93;;;26.40;99.90;;;;;;5000090;28;20423;-51
2022/06/10 10:31:59;;;;;;;9.17;2.97;;;26.80;99.90;;;;;;5001988;28;20432;-52
2022/06/10 10:34:32;;;;;;;9.77;3.20;;;27.30;99.90;;;;;;4992920;28;20461;-49
2022/06/10 10:37:00;;;;;;;11.03;3.20;;;27.70;99.90;;;;;;4993888;28;20526;-50
2022/06/10 10:39:32;;;;;;;8.23;3.00;;;28.60;99.90;;;;;;4994609;28;20470;-49
2022/06/10 10:42:16;;;;;;;8.17;2.80;;;28.10;99.90;;;;;;5001109;28;20451;-52
2022/06/10 10:44:44;;;;;;;6.37;2.73;;;26.90;99.90;;;;;;5000143;28;20415;-59
2022/06/10 10:47:10;;;;;;;10.63;2.53;;;26.50;99.90;;;;;;4998822;28;20478;-52
2022/06/10 10:49:39;;;;;;;6.50;2.93;;;26.60;99.90;;;;;;4999191;28;20754;-52
2022/06/10 10:52:38;;;;;;;9.50;2.97;;;27.20;99.90;;;;;;4997447;28;20295;-52
2022/06/10 10:55:13;;;;;;;4.17;2.30;;;28.10;99.90;;;;;;4992654;28;20996;-51
2022/06/10 10:58:08;;;;;;;8.17;2.90;;;27.70;99.90;;;;;;4988566;28;20439;-52
2022/06/10 11:00:53;;;;;;;6.03;1.97;;;26.90;99.90;;;;;;4982983;28;20949;-52
2022/06/10 11:03:43;;;;;;;8.20;2.50;;;26.40;99.90;;;;;;5002305;28;20522;-51
2022/06/10 11:06:25;;;;;;;9.00;3.10;;;25.80;99.90;;;;;;4993835;28;20477;-52
2022/06/10 11:08:58;;;;;;;7.30;2.83;;;24.90;99.90;;;;;;4998633;28;20427;-52
2022/06/10 11:11:31;;;;;;;6.83;2.47;;;24.10;99.90;;;;;;5000028;28;21020;-52
2022/06/10 11:14:04;;;;;;;9.77;3.30;;;23.70;99.90;;;;;;4996045;28;21284;-60
2022/06/10 11:16:38;;;;;;;7.07;2.90;;;24.00;99.90;;;;;;4999157;28;20430;-51
2022/06/10 11:19:23;;;;;;;5.13;2.73;;;24.30;99.90;;;;;;5000161;28;20458;-51
2022/06/10 11:21:54;;;;;;;14.30;3.00;;;24.70;99.90;;;;;;4999749;28;20848;-52
2022/06/10 11:24:25;;;;;;;6.50;3.27;;;24.80;99.90;;;;;;4987316;28;20510;-51
2022/06/10 11:26:55;;;;;;;5.60;2.40;;;24.70;99.90;;;;;;4998227;28;20475;-52
2022/06/10 11:29:21;;;;;;;7.20;3.10;;;24.90;99.90;;;;;;5004468;28;20490;-51
2022/06/10 11:31:57;;;;;;;13.80;3.70;;;24.80;99.90;;;;;;5006609;28;20422;-52
2022/06/10 11:34:33;;;;;;;5.10;2.67;;;25.30;99.90;;;;;;4995280;28;20179;-51
2022/06/10 11:36:58;;;;;;;6.83;2.70;;;26.10;99.90;;;;;;4998517;28;20433;-51
2022/06/10 11:39:29;;;;;;;8.67;2.50;;;26.70;99.90;;;;;;5003727;28;20510;-52
2022/06/10 11:41:59;;;;;;;5.60;3.00;;;26.70;99.90;;;;;;4996995;28;20586;-52
2022/06/10 11:44:27;;;;;;;22.57;3.67;;;25.80;99.90;;;;;;4995866;28;20904;-51
2022/06/10 11:47:04;;;;;;;11.93;2.73;;;25.80;99.90;;;;;;4999456;28;20489;-51
2022/06/10 11:49:35;;;;;;;6.03;2.80;;;26.20;99.90;;;;;;4996208;28;20529;-53
2022/06/10 11:52:10;;;;;;;6.17;2.40;;;26.80;99.90;;;;;;5007539;28;20434;-50
2022/06/10 11:54:57;;;;;;;6.03;2.73;;;27.20;99.90;;;;;;5002614;28;20553;-50
2022/06/10 12:00:24;;;;;;;9.90;2.30;;;27.80;99.90;;;;;;4990185;28;20489;-50
2022/06/10 12:03:07;;;;;;;10.97;3.03;;;27.50;99.90;;;;;;5006565;28;20553;-52
2022/06/10 12:05:52;;;;;;;5.47;2.93;;;28.00;99.90;;;;;;4998965;28;20477;-51
2022/06/10 12:08:32;;;;;;;6.87;2.77;;;27.60;99.90;;;;;;4998651;28;20431;-52
2022/06/10 12:11:14;;;;;;;4.47;2.33;;;27.50;99.90;;;;;;4990669;28;21047;-52
2022/06/10 12:13:55;;;;;;;5.43;2.90;;;27.20;99.90;;;;;;4993604;28;20443;-49
2022/06/10 12:16:21;;;;;;;15.03;3.00;;;27.40;99.90;;;;;;4992912;28;20439;-50
2022/06/10 12:18:50;;;;;;;5.27;2.70;;;27.50;99.90;;;;;;4992361;28;20440;-50
2022/06/10 12:21:22;;;;;;;7.77;3.40;;;27.50;99.90;;;;;;4998683;28;20929;-50
2022/06/10 12:23:48;;;;;;;6.43;3.40;;;28.10;99.90;;;;;;4995190;28;20482;-49
2022/06/10 12:26:35;;;;;;;7.67;3.37;;;28.10;99.90;;;;;;4993094;28;20554;-49
2022/06/10 12:29:26;;;;;;;5.90;3.20;;;27.40;99.90;;;;;;4995909;28;20753;-49
2022/06/10 12:31:58;;;;;;;11.77;3.90;;;27.30;99.90;;;;;;4993567;28;20435;-50
2022/06/10 12:34:45;;;;;;;7.33;3.97;;;27.10;99.90;;;;;;4995874;28;20902;-50
2022/06/10 12:37:30;;;;;;;7.03;3.83;;;26.90;99.90;;;;;;4994660;28;20780;-50
2022/06/10 12:40:14;;;;;;;5.10;3.93;;;26.80;99.90;;;;;;4995720;28;20545;-50
2022/06/10 12:42:47;;;;;;;4.50;3.50;;;26.30;99.90;;;;;;4992809;28;20423;-51
2022/06/10 12:45:31;;;;;;;12.10;4.60;;;26.10;99.90;;;;;;4996465;28;20466;-50
2022/06/10 12:48:05;;;;;;;5.70;3.90;;;26.00;99.90;;;;;;4996078;28;20853;-50
2022/06/10 12:50:37;;;;;;;9.17;4.70;;;26.30;99.90;;;;;;5000622;28;20451;-50
2022/06/10 12:53:21;;;;;;;7.00;3.77;;;26.30;99.90;;;;;;5002105;28;20461;-50
2022/06/10 12:55:52;;;;;;;7.90;4.17;;;25.90;99.90;;;;;;5005571;28;20434;-50
2022/06/10 12:58:39;;;;;;;9.07;4.30;;;25.40;99.90;;;;;;4998048;28;20427;-50
2022/06/10 13:01:18;;;;;;;7.33;3.73;;;25.10;99.90;;;;;;4993336;28;20415;-51
2022/06/10 13:03:46;;;;;;;10.33;4.53;;;25.20;99.90;;;;;;4998447;28;20426;-50
2022/06/10 13:06:42;;;;;;;8.40;3.43;;;25.10;99.90;;;;;;5001254;28;20467;-51
2022/06/10 13:09:11;;;;;;;11.50;2.50;;;24.70;99.90;;;;;;4998599;28;20411;-50
2022/06/10 13:11:46;;;;;;;3.77;2.10;;;24.60;99.90;;;;;;4999293;28;20418;-50
2022/06/10 13:14:21;;;;;;;4.13;1.97;;;24.50;99.90;;;;;;4998964;28;20903;-50
2022/06/10 13:17:07;;;;;;;3.43;2.50;;;24.60;99.90;;;;;;4997943;28;20462;-50
2022/06/10 13:19:36;;;;;;;6.63;2.70;;;24.60;99.90;;;;;;4995134;28;20430;-50
2022/06/10 13:22:20;;;;;;;5.87;3.23;;;24.30;99.90;;;;;;4997278;28;20514;-50
2022/06/10 13:25:08;;;;;;;6.60;2.97;;;24.40;99.90;;;;;;5000470;28;20525;-50
2022/06/10 13:27:41;;;;;;;8.20;3.00;;;24.60;99.90;;;;;;4989223;28;20490;-52
2022/06/10 13:30:20;;;;;;;4.10;2.50;;;24.70;99.90;;;;;;4997617;28;20431;-51